createdAt,value
2023-01-25T00:00:24.819Z,17.47
2023-01-25T00:02:53.047Z,21.60
2023-01-25T00:05:21.357Z,17.80
2023-01-25T00:07:49.741Z,17.37
2023-01-25T00:10:18.033Z,20.20
2023-01-25T00:12:47.717Z,17.03
2023-01-25T00:15:16.038Z,16.50
2023-01-25T00:17:44.218Z,17.30
2023-01-25T00:20:12.892Z,17.97
2023-01-25T00:22:41.173Z,16.93
2023-01-25T00:25:10.093Z,16.70
2023-01-25T00:27:38.457Z,17.47
2023-01-25T00:30:08.853Z,17.83
2023-01-25T00:32:48.987Z,18.10
2023-01-25T00:35:17.351Z,17.00
2023-01-25T00:37:49.828Z,17.67
2023-01-25T00:40:18.485Z,17.50
2023-01-25T00:42:46.693Z,16.73
2023-01-25T00:45:16.299Z,15.13
2023-01-25T00:47:44.541Z,17.27
2023-01-25T00:50:13.138Z,16.43
2023-01-25T00:52:41.645Z,16.63
2023-01-25T00:55:11.040Z,16.00
2023-01-25T00:57:39.295Z,17.17
2023-01-25T01:00:08.211Z,17.07
2023-01-25T01:02:37.733Z,16.93
2023-01-25T01:05:06.639Z,17.40
2023-01-25T01:07:35.292Z,18.23
2023-01-25T01:10:03.537Z,16.80
2023-01-25T01:12:31.733Z,17.37
2023-01-25T01:15:00.030Z,17.57
2023-01-25T01:17:28.332Z,17.83
2023-01-25T01:19:57.850Z,17.60
2023-01-25T01:22:26.088Z,17.60
2023-01-25T01:24:54.351Z,18.47
2023-01-25T01:27:22.555Z,18.13
2023-01-25T01:29:50.799Z,18.20
2023-01-25T01:32:19.151Z,19.97
2023-01-25T01:34:47.605Z,18.27
2023-01-25T01:37:17.205Z,17.27
2023-01-25T01:39:45.515Z,16.63
2023-01-25T01:42:13.712Z,17.47
2023-01-25T01:44:45.180Z,18.00
2023-01-25T01:47:15.561Z,18.40
2023-01-25T01:49:45.664Z,18.70
2023-01-25T01:52:15.051Z,18.10
2023-01-25T01:54:45.824Z,18.07
2023-01-25T01:57:15.345Z,18.10
2023-01-25T01:59:45.451Z,18.97
2023-01-25T02:02:14.181Z,18.27
2023-01-25T02:04:43.886Z,17.53
2023-01-25T02:07:16.856Z,19.70
2023-01-25T02:09:46.581Z,17.40
2023-01-25T02:12:17.065Z,18.30
2023-01-25T02:14:48.235Z,19.80
2023-01-25T02:17:16.440Z,18.87
2023-01-25T02:19:51.114Z,20.47
2023-01-25T02:22:34.467Z,19.00
2023-01-25T02:25:09.668Z,18.47
2023-01-25T02:27:40.376Z,18.83
2023-01-25T02:30:09.316Z,19.17
2023-01-25T02:32:37.709Z,20.60
2023-01-25T02:35:06.698Z,19.40
2023-01-25T02:37:35.327Z,19.13
2023-01-25T02:40:05.680Z,19.20
2023-01-25T02:42:35.592Z,20.27
2023-01-25T02:45:04.119Z,18.70
2023-01-25T02:47:32.651Z,19.67
2023-01-25T02:50:00.883Z,19.10
2023-01-25T02:52:29.111Z,20.87
2023-01-25T02:54:57.328Z,20.07
2023-01-25T02:57:25.566Z,19.87
2023-01-25T02:59:55.205Z,21.57
2023-01-25T03:02:23.448Z,21.23
2023-01-25T03:04:52.116Z,19.83
2023-01-25T03:07:20.315Z,20.97
2023-01-25T03:09:48.523Z,20.10
2023-01-25T03:12:16.709Z,20.53
2023-01-25T03:14:45.286Z,19.90
2023-01-25T03:17:14.846Z,21.47
2023-01-25T03:19:43.045Z,21.63
2023-01-25T03:22:11.228Z,21.93
2023-01-25T03:24:39.469Z,22.80
2023-01-25T03:27:14.399Z,21.63
2023-01-25T03:29:42.745Z,22.73
2023-01-25T03:32:11.036Z,22.80
2023-01-25T03:34:40.738Z,22.47
2023-01-25T03:37:08.943Z,22.27
2023-01-25T03:39:37.141Z,23.53
2023-01-25T03:42:05.482Z,24.77
2023-01-25T03:44:33.709Z,23.40
2023-01-25T03:47:02.022Z,20.97
2023-01-25T03:49:30.211Z,22.30
2023-01-25T03:51:59.786Z,23.97
2023-01-25T03:54:28.076Z,23.97
2023-01-25T03:56:56.304Z,24.53
2023-01-25T03:59:24.643Z,26.43
2023-01-25T04:01:53.307Z,22.77
2023-01-25T04:04:21.559Z,23.40
2023-01-25T04:06:49.768Z,23.60
2023-01-25T04:09:19.473Z,24.03
2023-01-25T04:11:50.565Z,28.87
2023-01-25T04:14:28.379Z,24.23
2023-01-25T04:17:05.437Z,27.30
2023-01-25T04:19:33.772Z,25.17
2023-01-25T04:22:02.000Z,23.33
2023-01-25T04:24:31.562Z,25.23
2023-01-25T04:26:59.773Z,25.87
2023-01-25T04:29:40.098Z,25.43
2023-01-25T04:32:09.836Z,24.60
2023-01-25T04:34:38.408Z,23.17
2023-01-25T04:37:06.649Z,24.90
2023-01-25T04:39:36.243Z,30.10
2023-01-25T04:42:04.656Z,25.40
2023-01-25T04:44:32.925Z,24.60
2023-01-25T04:47:01.136Z,25.03
2023-01-25T04:49:29.428Z,26.70
2023-01-25T04:51:57.779Z,25.47
2023-01-25T04:54:26.071Z,26.40
2023-01-25T04:56:55.734Z,24.90
2023-01-25T04:59:23.981Z,33.00
2023-01-25T05:01:52.327Z,30.23
2023-01-25T05:04:20.549Z,27.67
2023-01-25T05:06:48.859Z,29.47
2023-01-25T05:09:17.638Z,26.53
2023-01-25T05:11:45.909Z,33.73
2023-01-25T05:14:15.498Z,28.53
2023-01-25T05:16:43.845Z,28.17
2023-01-25T05:19:12.339Z,27.30
2023-01-25T05:21:58.732Z,28.97
2023-01-25T05:24:27.365Z,27.40
2023-01-25T05:27:00.865Z,25.70
2023-01-25T05:29:30.706Z,27.77
2023-01-25T05:32:01.069Z,27.03
2023-01-25T05:34:29.501Z,32.97
2023-01-25T05:36:58.367Z,28.13
2023-01-25T05:39:26.594Z,27.10
2023-01-25T05:41:54.884Z,26.67
2023-01-25T05:44:23.336Z,27.20
2023-01-25T05:46:52.915Z,27.07
2023-01-25T05:49:21.131Z,28.77
2023-01-25T05:51:49.401Z,29.27
2023-01-25T05:54:18.442Z,28.40
2023-01-25T05:56:46.728Z,31.20
2023-01-25T05:59:15.031Z,29.30
2023-01-25T06:01:43.273Z,27.17
2023-01-25T06:04:14.668Z,26.30
2023-01-25T06:06:43.217Z,30.23
2023-01-25T06:09:16.410Z,27.50
2023-01-25T06:11:45.792Z,27.73
2023-01-25T06:14:14.379Z,29.90
2023-01-25T06:16:42.935Z,27.07
2023-01-25T06:19:13.900Z,29.00
2023-01-25T06:21:42.309Z,27.50
2023-01-25T06:24:10.842Z,28.50
2023-01-25T06:26:39.118Z,28.07
2023-01-25T06:29:07.753Z,25.50
2023-01-25T06:31:36.136Z,26.70
2023-01-25T06:34:06.365Z,30.33
2023-01-25T06:36:36.137Z,27.67
2023-01-25T06:39:04.358Z,27.40
2023-01-25T06:41:32.610Z,27.70
2023-01-25T06:44:00.812Z,29.27
2023-01-25T06:46:29.038Z,31.17
2023-01-25T06:48:57.286Z,28.77
2023-01-25T06:51:25.453Z,31.80
2023-01-25T06:53:55.027Z,27.80
2023-01-25T06:56:24.752Z,30.43
2023-01-25T06:58:52.930Z,31.57
2023-01-25T07:01:22.351Z,31.67
2023-01-25T07:03:51.021Z,30.13
2023-01-25T07:06:19.244Z,30.00
2023-01-25T07:08:47.861Z,31.90
2023-01-25T07:11:19.023Z,31.37
2023-01-25T07:13:48.164Z,31.37
2023-01-25T07:16:17.297Z,32.53
2023-01-25T07:18:45.570Z,32.80
2023-01-25T07:21:14.815Z,28.43
2023-01-25T07:23:43.250Z,27.17
2023-01-25T07:26:15.918Z,28.93
2023-01-25T07:28:45.646Z,30.30
2023-01-25T07:31:14.536Z,29.57
2023-01-25T07:33:43.009Z,30.47
2023-01-25T07:36:12.145Z,28.93
2023-01-25T07:38:40.363Z,28.73
2023-01-25T07:41:08.755Z,32.93
2023-01-25T07:43:37.042Z,29.23
2023-01-25T07:46:08.077Z,28.53
2023-01-25T07:48:36.325Z,28.53
2023-01-25T07:51:22.791Z,33.00
2023-01-25T07:53:52.053Z,32.20
2023-01-25T07:56:20.559Z,28.60
2023-01-25T07:58:48.970Z,29.73
2023-01-25T08:01:19.525Z,27.70
2023-01-25T08:03:48.084Z,33.57
2023-01-25T08:06:16.418Z,31.00
2023-01-25T08:08:45.952Z,29.03
2023-01-25T08:11:15.510Z,32.07
2023-01-25T08:13:46.092Z,31.37
2023-01-25T08:16:14.437Z,34.27
2023-01-25T08:18:44.144Z,30.47
2023-01-25T08:21:12.421Z,34.30
2023-01-25T08:23:40.626Z,30.93
2023-01-25T08:26:10.280Z,33.13
2023-01-25T08:28:38.654Z,35.73
2023-01-25T08:31:07.625Z,38.40
2023-01-25T08:33:36.028Z,32.00
2023-01-25T08:36:06.221Z,31.67
2023-01-25T08:38:34.480Z,30.23
2023-01-25T08:41:06.948Z,32.13
2023-01-25T08:43:35.493Z,29.40
2023-01-25T08:46:03.996Z,30.40
2023-01-25T08:48:32.411Z,28.63
2023-01-25T08:51:00.690Z,30.93
2023-01-25T08:53:32.126Z,30.87
2023-01-25T08:56:04.280Z,30.43
2023-01-25T08:58:32.733Z,29.30
2023-01-25T09:01:03.372Z,33.87
2023-01-25T09:03:31.793Z,33.73
2023-01-25T09:06:00.108Z,29.83
2023-01-25T09:08:28.321Z,30.07
2023-01-25T09:11:01.995Z,29.37
2023-01-25T09:13:30.224Z,28.70
2023-01-25T09:16:01.955Z,30.90
2023-01-25T09:18:30.299Z,31.63
2023-01-25T09:20:58.557Z,26.23
2023-01-25T09:23:26.947Z,33.40
2023-01-25T09:25:59.745Z,31.40
2023-01-25T09:28:29.881Z,30.00
2023-01-25T09:31:18.490Z,31.00
2023-01-25T09:33:46.419Z,30.37
2023-01-25T09:36:15.568Z,30.27
2023-01-25T09:38:43.938Z,31.67
2023-01-25T09:41:33.045Z,30.63
2023-01-25T09:44:14.807Z,31.27
2023-01-25T09:46:45.165Z,34.40
2023-01-25T09:49:18.695Z,30.00
2023-01-25T09:51:54.520Z,32.07
2023-01-25T09:54:23.988Z,30.47
2023-01-25T09:56:53.311Z,34.17
2023-01-25T09:59:26.282Z,32.57
2023-01-25T10:01:57.800Z,33.57
2023-01-25T10:04:27.370Z,29.63
2023-01-25T10:07:01.559Z,30.43
2023-01-25T10:09:35.737Z,32.17
2023-01-25T10:12:06.685Z,29.37
2023-01-25T10:14:36.368Z,30.00
2023-01-25T10:17:09.064Z,29.80
2023-01-25T10:19:45.916Z,31.17
2023-01-25T10:22:17.018Z,31.47
2023-01-25T10:25:01.990Z,33.70
2023-01-25T10:27:37.504Z,35.03
2023-01-25T10:30:19.108Z,37.43
2023-01-25T10:32:55.919Z,34.13
2023-01-25T10:35:35.173Z,35.60
2023-01-25T10:38:06.529Z,34.17
2023-01-25T10:40:40.915Z,36.93
2023-01-25T10:43:13.198Z,35.33
2023-01-25T10:45:44.471Z,35.83
2023-01-25T10:48:15.699Z,32.77
2023-01-25T10:50:46.308Z,31.17
2023-01-25T10:53:23.281Z,31.63
2023-01-25T10:56:00.516Z,36.30
2023-01-25T10:58:33.006Z,34.40
2023-01-25T11:01:02.634Z,32.70
2023-01-25T11:03:38.194Z,37.23
2023-01-25T11:06:07.394Z,34.53
2023-01-25T11:08:36.883Z,34.43
2023-01-25T11:11:25.556Z,36.03
2023-01-25T11:13:55.873Z,35.67
2023-01-25T11:16:35.824Z,36.40
2023-01-25T11:19:09.574Z,36.87
2023-01-25T11:21:37.806Z,36.20
2023-01-25T11:24:17.718Z,34.57
2023-01-25T11:26:46.410Z,34.63
2023-01-25T11:29:19.335Z,41.10
2023-01-25T11:31:50.616Z,38.37
2023-01-25T11:34:20.278Z,43.17
2023-01-25T11:36:58.021Z,39.90
2023-01-25T11:39:40.291Z,35.13
2023-01-25T11:42:14.044Z,40.03
2023-01-25T11:44:52.434Z,36.17
2023-01-25T11:47:29.112Z,37.60
2023-01-25T11:50:04.284Z,47.03
2023-01-25T11:52:36.481Z,33.87
2023-01-25T11:55:09.511Z,41.13
2023-01-25T11:57:45.158Z,35.93
2023-01-25T12:00:22.094Z,36.97
2023-01-25T12:03:06.721Z,40.07
2023-01-25T12:05:41.661Z,37.40
2023-01-25T12:08:16.833Z,37.93
2023-01-25T12:10:48.430Z,37.83
2023-01-25T12:13:19.840Z,42.60
2023-01-25T12:15:57.334Z,36.50
2023-01-25T12:18:43.307Z,37.37
2023-01-25T12:21:23.085Z,40.23
2023-01-25T12:23:59.775Z,37.53
2023-01-25T12:26:30.139Z,42.63
2023-01-25T12:29:01.550Z,41.90
2023-01-25T12:31:36.288Z,42.63
2023-01-25T12:34:06.250Z,44.17
2023-01-25T12:36:39.214Z,44.40
2023-01-25T12:39:08.976Z,47.57
2023-01-25T12:41:41.102Z,48.43
2023-01-25T12:44:13.441Z,46.40
2023-01-25T12:46:44.366Z,46.80
2023-01-25T12:49:17.326Z,55.10
2023-01-25T12:51:47.589Z,50.97
2023-01-25T12:54:18.854Z,53.60
2023-01-25T12:56:50.548Z,52.13
2023-01-25T12:59:20.714Z,55.30
2023-01-25T13:01:51.233Z,52.23
2023-01-25T13:04:27.781Z,50.63
2023-01-25T13:07:00.075Z,55.77
2023-01-25T13:09:30.819Z,55.40
2023-01-25T13:11:59.498Z,56.70
2023-01-25T13:14:29.669Z,53.43
2023-01-25T13:17:11.889Z,55.97
2023-01-25T13:19:42.717Z,54.97
2023-01-25T13:22:13.034Z,57.87
2023-01-25T13:24:59.919Z,52.43
2023-01-25T13:27:29.531Z,53.80
2023-01-25T13:29:58.976Z,58.10
2023-01-25T13:32:46.070Z,58.00
2023-01-25T13:35:27.618Z,54.70
2023-01-25T13:38:01.141Z,55.37
2023-01-25T13:40:31.978Z,63.23
2023-01-25T13:43:01.158Z,60.13
2023-01-25T13:45:30.502Z,59.13
2023-01-25T13:48:03.236Z,57.07
2023-01-25T13:50:34.461Z,58.80
2023-01-25T13:53:05.347Z,56.67
2023-01-25T13:55:39.737Z,57.17
2023-01-25T13:58:11.554Z,68.90
2023-01-25T14:00:39.872Z,62.17
2023-01-25T14:03:08.136Z,61.50
2023-01-25T14:05:36.365Z,57.23
2023-01-25T14:08:06.017Z,60.03
2023-01-25T14:10:34.274Z,57.67
2023-01-25T14:13:02.663Z,72.13
2023-01-25T14:15:31.504Z,62.03
2023-01-25T14:18:11.471Z,61.90
2023-01-25T14:20:40.038Z,68.47
2023-01-25T14:23:23.963Z,68.90
2023-01-25T14:25:52.310Z,67.00
2023-01-25T14:28:20.601Z,71.90
2023-01-25T14:30:52.782Z,69.73
2023-01-25T14:33:22.860Z,64.83
2023-01-25T14:35:58.519Z,71.90
2023-01-25T14:38:36.089Z,74.80
2023-01-25T14:41:08.133Z,65.97
2023-01-25T14:43:37.737Z,70.07
2023-01-25T14:46:19.504Z,70.30
2023-01-25T14:48:47.770Z,74.67
2023-01-25T14:51:18.896Z,74.57
2023-01-25T14:53:49.810Z,74.27
2023-01-25T14:56:23.326Z,77.83
2023-01-25T14:58:59.528Z,80.33
2023-01-25T15:01:34.348Z,74.90
2023-01-25T15:04:02.780Z,73.87
2023-01-25T15:06:31.058Z,80.30
2023-01-25T15:09:00.810Z,75.67
2023-01-25T15:11:38.680Z,81.40
2023-01-25T15:14:18.081Z,75.93
2023-01-25T15:16:46.457Z,76.87
2023-01-25T15:19:25.429Z,75.70
2023-01-25T15:21:53.618Z,74.13
2023-01-25T15:24:23.672Z,78.07
2023-01-25T15:26:52.842Z,74.97
2023-01-25T15:29:22.147Z,74.63
2023-01-25T15:31:51.445Z,81.83
2023-01-25T15:34:21.134Z,76.30
2023-01-25T15:36:49.519Z,77.97
2023-01-25T15:39:18.275Z,76.33
2023-01-25T15:41:48.282Z,75.13
2023-01-25T15:44:17.426Z,73.60
2023-01-25T15:46:47.230Z,81.13
2023-01-25T15:49:18.590Z,79.70
2023-01-25T15:51:47.280Z,77.53
2023-01-25T15:54:15.482Z,77.37
2023-01-25T15:56:44.580Z,74.53
2023-01-25T15:59:17.519Z,83.73
2023-01-25T16:01:46.261Z,78.60
2023-01-25T16:04:14.530Z,75.97
2023-01-25T16:06:46.604Z,80.80
2023-01-25T16:09:16.165Z,83.70
2023-01-25T16:11:44.553Z,82.20
2023-01-25T16:14:12.910Z,82.80
2023-01-25T16:16:44.493Z,85.80
2023-01-25T16:19:14.286Z,85.23
2023-01-25T16:21:42.738Z,85.03
2023-01-25T16:24:11.558Z,87.73
2023-01-25T16:26:40.982Z,81.30
2023-01-25T16:29:09.229Z,78.57
2023-01-25T16:31:37.646Z,81.47
2023-01-25T16:34:07.534Z,84.73
2023-01-25T16:36:37.472Z,77.73
2023-01-25T16:39:10.022Z,84.23
2023-01-25T16:41:38.599Z,83.77
2023-01-25T16:44:06.941Z,82.77
2023-01-25T16:46:35.270Z,84.77
2023-01-25T16:49:04.983Z,87.90
2023-01-25T16:51:34.909Z,86.90
2023-01-25T16:54:03.182Z,81.80
2023-01-25T16:56:32.647Z,80.17
2023-01-25T16:59:02.679Z,89.40
2023-01-25T17:01:30.962Z,79.37
2023-01-25T17:03:59.307Z,70.33
2023-01-25T17:06:28.258Z,72.77
2023-01-25T17:09:00.309Z,77.17
2023-01-25T17:11:29.282Z,74.33
2023-01-25T17:13:58.425Z,82.37
2023-01-25T17:16:27.654Z,77.13
2023-01-25T17:18:56.171Z,76.03
2023-01-25T17:21:24.949Z,77.53
2023-01-25T17:23:53.391Z,86.27
2023-01-25T17:26:24.315Z,79.20
2023-01-25T17:28:53.112Z,79.83
2023-01-25T17:31:22.152Z,82.03
2023-01-25T17:33:50.566Z,84.83
2023-01-25T17:36:18.999Z,82.20
2023-01-25T17:38:47.474Z,81.30
2023-01-25T17:41:16.397Z,80.87
2023-01-25T17:43:46.025Z,86.53
2023-01-25T17:46:19.685Z,84.10
2023-01-25T17:48:48.844Z,84.07
2023-01-25T17:51:17.081Z,86.17
2023-01-25T17:53:45.443Z,82.90
2023-01-25T17:56:14.380Z,81.57
2023-01-25T17:58:42.970Z,90.40
2023-01-25T18:01:14.358Z,85.10
2023-01-25T18:03:43.168Z,76.23
2023-01-25T18:06:11.764Z,76.13
2023-01-25T18:08:41.256Z,75.23
2023-01-25T18:11:10.237Z,79.83
2023-01-25T18:13:40.836Z,73.77
2023-01-25T18:16:10.447Z,77.40
2023-01-25T18:18:40.495Z,75.03
2023-01-25T18:21:10.005Z,82.87
2023-01-25T18:23:39.024Z,73.87
2023-01-25T18:26:09.095Z,73.07
2023-01-25T18:28:38.502Z,79.93
2023-01-25T18:31:08.590Z,75.33
2023-01-25T18:33:36.886Z,75.07
2023-01-25T18:36:06.932Z,72.33
2023-01-25T18:38:35.172Z,71.13
2023-01-25T18:41:03.449Z,78.80
2023-01-25T18:43:31.801Z,75.67
2023-01-25T18:46:00.676Z,73.67
2023-01-25T18:48:31.311Z,81.50
2023-01-25T18:51:00.149Z,78.40
2023-01-25T18:53:32.544Z,79.43
2023-01-25T18:56:02.008Z,74.73
2023-01-25T18:58:31.564Z,80.03
2023-01-25T19:01:03.904Z,78.83
2023-01-25T19:03:32.340Z,74.60
2023-01-25T19:06:01.003Z,75.80
2023-01-25T19:08:36.733Z,80.37
2023-01-25T19:11:06.677Z,81.67
2023-01-25T19:13:38.533Z,83.53
2023-01-25T19:16:10.063Z,84.87
2023-01-25T19:18:48.394Z,82.00
2023-01-25T19:21:17.560Z,86.87
2023-01-25T19:23:47.459Z,83.80
2023-01-25T19:26:17.052Z,80.43
2023-01-25T19:28:45.833Z,80.17
2023-01-25T19:31:15.383Z,79.67
2023-01-25T19:33:43.909Z,81.47
2023-01-25T19:36:15.397Z,80.30
2023-01-25T19:38:43.831Z,84.50
2023-01-25T19:41:14.251Z,82.37
2023-01-25T19:43:43.490Z,88.10
2023-01-25T19:46:12.771Z,79.73
2023-01-25T19:48:41.463Z,82.90
2023-01-25T19:51:13.385Z,84.60
2023-01-25T19:53:46.194Z,82.10
2023-01-25T19:56:16.760Z,83.93
2023-01-25T19:58:45.707Z,80.03
2023-01-25T20:01:15.473Z,83.40
2023-01-25T20:03:44.057Z,80.93
2023-01-25T20:06:12.780Z,83.03
2023-01-25T20:08:41.947Z,84.57
2023-01-25T20:11:12.711Z,83.93
2023-01-25T20:13:42.756Z,87.50
2023-01-25T20:16:11.838Z,84.57
2023-01-25T20:18:40.427Z,91.53
2023-01-25T20:21:09.907Z,86.67
2023-01-25T20:23:39.007Z,91.00
2023-01-25T20:26:08.576Z,89.00
2023-01-25T20:28:37.430Z,87.07
2023-01-25T20:31:07.438Z,87.87
2023-01-25T20:33:36.150Z,89.73
2023-01-25T20:36:05.064Z,86.37
2023-01-25T20:38:33.520Z,87.80
2023-01-25T20:41:07.995Z,91.17
2023-01-25T20:43:36.527Z,90.47
2023-01-25T20:46:05.154Z,86.20
2023-01-25T20:48:36.524Z,83.97
2023-01-25T20:51:04.885Z,91.10
2023-01-25T20:53:33.477Z,86.43
2023-01-25T20:56:01.884Z,93.00
2023-01-25T20:58:30.657Z,88.57
2023-01-25T21:00:58.989Z,87.13
2023-01-25T21:03:29.961Z,89.60
2023-01-25T21:06:01.380Z,89.70
2023-01-25T21:08:29.886Z,94.60
2023-01-25T21:10:59.587Z,98.47
2023-01-25T21:13:29.355Z,96.93
2023-01-25T21:16:01.651Z,97.60
2023-01-25T21:18:30.775Z,94.17
2023-01-25T21:21:04.286Z,97.47
2023-01-25T21:23:33.954Z,92.83
2023-01-25T21:26:02.321Z,97.17
2023-01-25T21:28:30.675Z,92.53
2023-01-25T21:30:59.144Z,96.67
2023-01-25T21:33:27.410Z,91.80
2023-01-25T21:35:55.761Z,94.27
2023-01-25T21:38:25.503Z,94.17
2023-01-25T21:40:53.760Z,97.37
2023-01-25T21:43:21.941Z,97.53
2023-01-25T21:46:07.735Z,90.87
2023-01-25T21:48:53.901Z,99.43
2023-01-25T21:51:39.405Z,91.87
2023-01-25T21:54:09.231Z,97.50
2023-01-25T21:56:37.567Z,93.40
2023-01-25T21:59:05.945Z,102.67
2023-01-25T22:01:34.327Z,97.37
2023-01-25T22:04:02.911Z,94.87
2023-01-25T22:06:31.161Z,98.33
2023-01-25T22:08:59.368Z,93.87
2023-01-25T22:11:29.186Z,92.07
2023-01-25T22:13:57.498Z,97.20
2023-01-25T22:16:25.959Z,88.33
2023-01-25T22:18:54.303Z,92.43
2023-01-25T22:21:23.394Z,99.23
2023-01-25T22:23:52.210Z,106.03
2023-01-25T22:26:21.178Z,97.20
2023-01-25T22:28:51.380Z,100.53
2023-01-25T22:31:20.284Z,98.20
2023-01-25T22:33:48.678Z,101.10
2023-01-25T22:36:17.866Z,110.67
2023-01-25T22:38:46.473Z,108.17
2023-01-25T22:41:16.217Z,115.00
2023-01-25T22:43:44.729Z,117.97
2023-01-25T22:46:15.368Z,112.40
2023-01-25T22:48:43.693Z,119.73
2023-01-25T22:51:13.243Z,119.13
2023-01-25T22:53:41.456Z,114.87
2023-01-25T22:56:11.489Z,117.43
2023-01-25T22:58:40.366Z,116.13
2023-01-25T23:01:10.273Z,130.17
2023-01-25T23:03:40.192Z,128.83
2023-01-25T23:06:09.341Z,125.50
2023-01-25T23:08:38.299Z,125.50
2023-01-25T23:11:07.267Z,118.73
2023-01-25T23:13:36.974Z,121.03
2023-01-25T23:16:06.079Z,123.47
2023-01-25T23:18:51.958Z,115.87
2023-01-25T23:21:22.397Z,120.47
2023-01-25T23:23:51.016Z,121.83
2023-01-25T23:26:19.625Z,123.87
2023-01-25T23:28:51.135Z,117.67
2023-01-25T23:31:21.362Z,117.37
2023-01-25T23:33:50.900Z,124.33
2023-01-25T23:36:20.457Z,116.77
2023-01-25T23:38:50.118Z,117.50
2023-01-25T23:41:19.418Z,115.43
2023-01-25T23:43:47.786Z,121.63
2023-01-25T23:46:16.100Z,120.33
2023-01-25T23:48:44.653Z,114.07
2023-01-25T23:51:13.070Z,114.90
2023-01-25T23:53:41.603Z,122.63
2023-01-25T23:56:14.505Z,116.87
2023-01-25T23:58:42.839Z,116.03
